sensor_id;sensor_type;location;lat;lon;timestamp;P1;durP1;ratioP1;P2;durP2;ratioP2
49858;SDS011;35756;52.346;13.622;2023-08-30T00:01:14;5.43;;;3.20;;
49858;SDS011;35756;52.346;13.622;2023-08-30T00:03:39;7.10;;;3.75;;
49858;SDS011;35756;52.346;13.622;2023-08-30T00:06:05;6.80;;;3.50;;
49858;SDS011;35756;52.346;13.622;2023-08-30T00:08:31;6.07;;;3.55;;
49858;SDS011;35756;52.346;13.622;2023-08-30T00:10:57;5.57;;;3.33;;
49858;SDS011;35756;52.346;13.622;2023-08-30T00:13:23;5.70;;;2.97;;
49858;SDS011;35756;52.346;13.622;2023-08-30T00:15:51;7.25;;;3.17;;
49858;SDS011;35756;52.346;13.622;2023-08-30T00:18:17;5.75;;;3.50;;
49858;SDS011;35756;52.346;13.622;2023-08-30T00:20:43;8.25;;;3.28;;
49858;SDS011;35756;52.346;13.622;2023-08-30T00:23:09;5.13;;;3.20;;
49858;SDS011;35756;52.346;13.622;2023-08-30T00:25:34;5.65;;;2.90;;
49858;SDS011;35756;52.346;13.622;2023-08-30T00:27:59;5.28;;;3.22;;
49858;SDS011;35756;52.346;13.622;2023-08-30T00:30:25;4.90;;;3.42;;
49858;SDS011;35756;52.346;13.622;2023-08-30T00:32:50;5.57;;;3.10;;
49858;SDS011;35756;52.346;13.622;2023-08-30T00:35:15;4.63;;;3.30;;
49858;SDS011;35756;52.346;13.622;2023-08-30T00:37:40;4.93;;;3.00;;
49858;SDS011;35756;52.346;13.622;2023-08-30T00:40:06;5.85;;;3.22;;
49858;SDS011;35756;52.346;13.622;2023-08-30T00:42:31;5.70;;;3.20;;
49858;SDS011;35756;52.346;13.622;2023-08-30T00:44:57;5.70;;;3.38;;
49858;SDS011;35756;52.346;13.622;2023-08-30T00:47:22;5.93;;;3.63;;
49858;SDS011;35756;52.346;13.622;2023-08-30T00:49:48;5.72;;;3.97;;
49858;SDS011;35756;52.346;13.622;2023-08-30T00:52:13;5.18;;;3.47;;
49858;SDS011;35756;52.346;13.622;2023-08-30T00:54:39;6.07;;;3.92;;
49858;SDS011;35756;52.346;13.622;2023-08-30T00:57:04;6.78;;;3.42;;
49858;SDS011;35756;52.346;13.622;2023-08-30T00:59:29;6.10;;;4.13;;
49858;SDS011;35756;52.346;13.622;2023-08-30T01:01:59;8.02;;;3.72;;
49858;SDS011;35756;52.346;13.622;2023-08-30T01:04:26;6.68;;;3.88;;
49858;SDS011;35756;52.346;13.622;2023-08-30T01:06:52;5.20;;;3.85;;
49858;SDS011;35756;52.346;13.622;2023-08-30T01:09:17;5.68;;;3.83;;
49858;SDS011;35756;52.346;13.622;2023-08-30T01:11:50;6.40;;;3.85;;
49858;SDS011;35756;52.346;13.622;2023-08-30T01:14:21;5.88;;;3.65;;
49858;SDS011;35756;52.346;13.622;2023-08-30T01:16:48;5.85;;;3.58;;
49858;SDS011;35756;52.346;13.622;2023-08-30T01:19:26;5.30;;;3.45;;
49858;SDS011;35756;52.346;13.622;2023-08-30T01:22:16;4.93;;;3.58;;
49858;SDS011;35756;52.346;13.622;2023-08-30T01:27:41;8.73;;;3.90;;
49858;SDS011;35756;52.346;13.622;2023-08-30T01:30:07;8.18;;;4.20;;
49858;SDS011;35756;52.346;13.622;2023-08-30T01:32:34;5.82;;;4.00;;
49858;SDS011;35756;52.346;13.622;2023-08-30T01:35:00;7.07;;;4.05;;
49858;SDS011;35756;52.346;13.622;2023-08-30T01:37:26;9.40;;;4.18;;
49858;SDS011;35756;52.346;13.622;2023-08-30T01:39:52;5.13;;;3.55;;
49858;SDS011;35756;52.346;13.622;2023-08-30T01:42:19;5.47;;;3.58;;
49858;SDS011;35756;52.346;13.622;2023-08-30T01:44:47;5.65;;;3.80;;
49858;SDS011;35756;52.346;13.622;2023-08-30T01:47:13;6.82;;;4.10;;
49858;SDS011;35756;52.346;13.622;2023-08-30T01:49:41;5.55;;;3.50;;
49858;SDS011;35756;52.346;13.622;2023-08-30T01:52:06;5.90;;;3.90;;
49858;SDS011;35756;52.346;13.622;2023-08-30T01:54:32;6.38;;;4.05;;
49858;SDS011;35756;52.346;13.622;2023-08-30T01:56:57;5.45;;;3.55;;
49858;SDS011;35756;52.346;13.622;2023-08-30T01:59:23;6.95;;;4.30;;
49858;SDS011;35756;52.346;13.622;2023-08-30T02:01:49;7.88;;;3.78;;
49858;SDS011;35756;52.346;13.622;2023-08-30T02:04:14;8.70;;;3.63;;
49858;SDS011;35756;52.346;13.622;2023-08-30T02:06:45;5.38;;;3.40;;
49858;SDS011;35756;52.346;13.622;2023-08-30T02:09:14;6.57;;;4.03;;
49858;SDS011;35756;52.346;13.622;2023-08-30T02:11:44;9.77;;;3.70;;
49858;SDS011;35756;52.346;13.622;2023-08-30T02:14:10;5.95;;;3.80;;
49858;SDS011;35756;52.346;13.622;2023-08-30T02:16:36;4.80;;;3.38;;
49858;SDS011;35756;52.346;13.622;2023-08-30T02:19:02;5.75;;;3.63;;
49858;SDS011;35756;52.346;13.622;2023-08-30T02:21:28;5.70;;;3.78;;
49858;SDS011;35756;52.346;13.622;2023-08-30T02:23:53;5.32;;;3.30;;
49858;SDS011;35756;52.346;13.622;2023-08-30T02:26:19;5.15;;;3.50;;
49858;SDS011;35756;52.346;13.622;2023-08-30T02:28:44;6.93;;;3.40;;
49858;SDS011;35756;52.346;13.622;2023-08-30T02:31:10;4.60;;;2.90;;
49858;SDS011;35756;52.346;13.622;2023-08-30T02:33:35;6.28;;;3.42;;
49858;SDS011;35756;52.346;13.622;2023-08-30T02:36:02;3.95;;;2.72;;
49858;SDS011;35756;52.346;13.622;2023-08-30T02:38:27;4.22;;;2.47;;
49858;SDS011;35756;52.346;13.622;2023-08-30T02:40:52;4.47;;;2.75;;
49858;SDS011;35756;52.346;13.622;2023-08-30T02:43:18;4.90;;;2.80;;
49858;SDS011;35756;52.346;13.622;2023-08-30T02:45:43;4.47;;;2.60;;
49858;SDS011;35756;52.346;13.622;2023-08-30T02:48:08;4.85;;;3.05;;
49858;SDS011;35756;52.346;13.622;2023-08-30T02:50:34;4.95;;;2.72;;
49858;SDS011;35756;52.346;13.622;2023-08-30T02:52:59;3.95;;;2.58;;
49858;SDS011;35756;52.346;13.622;2023-08-30T02:55:24;4.90;;;3.03;;
49858;SDS011;35756;52.346;13.622;2023-08-30T02:57:50;4.97;;;3.00;;
49858;SDS011;35756;52.346;13.622;2023-08-30T03:00:15;17.70;;;3.40;;
49858;SDS011;35756;52.346;13.622;2023-08-30T03:02:40;4.60;;;3.15;;
49858;SDS011;35756;52.346;13.622;2023-08-30T03:05:06;4.07;;;2.67;;
49858;SDS011;35756;52.346;13.622;2023-08-30T03:07:31;3.90;;;2.63;;
49858;SDS011;35756;52.346;13.622;2023-08-30T03:09:56;5.18;;;3.20;;
49858;SDS011;35756;52.346;13.622;2023-08-30T03:12:22;4.50;;;2.88;;
49858;SDS011;35756;52.346;13.622;2023-08-30T03:14:47;3.95;;;2.70;;
49858;SDS011;35756;52.346;13.622;2023-08-30T03:17:12;4.80;;;2.58;;
49858;SDS011;35756;52.346;13.622;2023-08-30T03:19:38;4.88;;;2.75;;
49858;SDS011;35756;52.346;13.622;2023-08-30T03:22:03;3.90;;;2.70;;
49858;SDS011;35756;52.346;13.622;2023-08-30T03:24:28;5.55;;;3.15;;
49858;SDS011;35756;52.346;13.622;2023-08-30T03:26:54;4.85;;;2.78;;
49858;SDS011;35756;52.346;13.622;2023-08-30T03:29:19;6.20;;;2.97;;
49858;SDS011;35756;52.346;13.622;2023-08-30T03:31:44;4.03;;;2.55;;
49858;SDS011;35756;52.346;13.622;2023-08-30T03:34:10;4.10;;;2.53;;
49858;SDS011;35756;52.346;13.622;2023-08-30T03:36:35;3.95;;;2.50;;
49858;SDS011;35756;52.346;13.622;2023-08-30T03:39:00;3.70;;;2.42;;
49858;SDS011;35756;52.346;13.622;2023-08-30T03:41:26;4.18;;;2.88;;
49858;SDS011;35756;52.346;13.622;2023-08-30T03:43:51;4.22;;;2.97;;
49858;SDS011;35756;52.346;13.622;2023-08-30T03:46:16;4.38;;;2.80;;
49858;SDS011;35756;52.346;13.622;2023-08-30T03:48:41;5.05;;;3.00;;
49858;SDS011;35756;52.346;13.622;2023-08-30T03:51:07;4.65;;;2.90;;
49858;SDS011;35756;52.346;13.622;2023-08-30T03:53:32;4.00;;;2.67;;
49858;SDS011;35756;52.346;13.622;2023-08-30T03:55:57;5.97;;;3.03;;
49858;SDS011;35756;52.346;13.622;2023-08-30T03:58:23;5.25;;;3.30;;
49858;SDS011;35756;52.346;13.622;2023-08-30T04:00:48;4.80;;;2.75;;
49858;SDS011;35756;52.346;13.622;2023-08-30T04:03:14;5.90;;;3.10;;
49858;SDS011;35756;52.346;13.622;2023-08-30T04:05:40;5.40;;;2.95;;
49858;SDS011;35756;52.346;13.622;2023-08-30T04:08:06;5.30;;;3.13;;
49858;SDS011;35756;52.346;13.622;2023-08-30T04:10:35;4.47;;;3.08;;
49858;SDS011;35756;52.346;13.622;2023-08-30T04:13:00;5.32;;;2.92;;
49858;SDS011;35756;52.346;13.622;2023-08-30T04:15:26;5.00;;;3.10;;
49858;SDS011;35756;52.346;13.622;2023-08-30T04:17:51;5.45;;;2.97;;
49858;SDS011;35756;52.346;13.622;2023-08-30T04:20:17;4.70;;;3.03;;
49858;SDS011;35756;52.346;13.622;2023-08-30T04:22:42;4.70;;;3.17;;
49858;SDS011;35756;52.346;13.622;2023-08-30T04:25:07;5.05;;;3.13;;
49858;SDS011;35756;52.346;13.622;2023-08-30T04:27:34;4.50;;;3.17;;
49858;SDS011;35756;52.346;13.622;2023-08-30T04:29:59;4.25;;;2.90;;
49858;SDS011;35756;52.346;13.622;2023-08-30T04:32:25;4.65;;;3.05;;
49858;SDS011;35756;52.346;13.622;2023-08-30T04:34:50;4.07;;;2.92;;
49858;SDS011;35756;52.346;13.622;2023-08-30T04:37:15;3.90;;;2.67;;
49858;SDS011;35756;52.346;13.622;2023-08-30T04:39:40;4.55;;;3.33;;
49858;SDS011;35756;52.346;13.622;2023-08-30T04:42:06;5.03;;;2.97;;
49858;SDS011;35756;52.346;13.622;2023-08-30T04:44:31;5.32;;;2.55;;
49858;SDS011;35756;52.346;13.622;2023-08-30T04:46:57;4.28;;;2.97;;
49858;SDS011;35756;52.346;13.622;2023-08-30T04:49:22;5.30;;;3.00;;
49858;SDS011;35756;52.346;13.622;2023-08-30T04:51:50;7.05;;;3.88;;
49858;SDS011;35756;52.346;13.622;2023-08-30T04:54:15;4.93;;;3.17;;
49858;SDS011;35756;52.346;13.622;2023-08-30T04:56:40;4.20;;;3.00;;
49858;SDS011;35756;52.346;13.622;2023-08-30T04:59:06;7.85;;;3.22;;
49858;SDS011;35756;52.346;13.622;2023-08-30T05:01:31;4.45;;;3.30;;
49858;SDS011;35756;52.346;13.622;2023-08-30T05:03:56;4.55;;;2.65;;
49858;SDS011;35756;52.346;13.622;2023-08-30T05:06:21;4.32;;;3.30;;
49858;SDS011;35756;52.346;13.622;2023-08-30T05:08:47;5.80;;;3.03;;
49858;SDS011;35756;52.346;13.622;2023-08-30T05:11:12;4.75;;;3.17;;
49858;SDS011;35756;52.346;13.622;2023-08-30T05:13:37;4.50;;;3.10;;
49858;SDS011;35756;52.346;13.622;2023-08-30T05:16:03;5.07;;;2.95;;
49858;SDS011;35756;52.346;13.622;2023-08-30T05:18:28;5.13;;;3.63;;
49858;SDS011;35756;52.346;13.622;2023-08-30T05:20:53;4.97;;;3.42;;
49858;SDS011;35756;52.346;13.622;2023-08-30T05:23:19;6.47;;;3.20;;
49858;SDS011;35756;52.346;13.622;2023-08-30T05:25:44;6.88;;;4.05;;
49858;SDS011;35756;52.346;13.622;2023-08-30T05:28:09;6.18;;;3.53;;
49858;SDS011;35756;52.346;13.622;2023-08-30T05:30:35;5.30;;;3.22;;
49858;SDS011;35756;52.346;13.622;2023-08-30T05:33:00;4.55;;;3.22;;
49858;SDS011;35756;52.346;13.622;2023-08-30T05:35:25;4.40;;;3.10;;
49858;SDS011;35756;52.346;13.622;2023-08-30T05:37:50;6.57;;;3.28;;
49858;SDS011;35756;52.346;13.622;2023-08-30T05:40:16;5.32;;;3.30;;
49858;SDS011;35756;52.346;13.622;2023-08-30T05:42:42;5.10;;;3.30;;
49858;SDS011;35756;52.346;13.622;2023-08-30T05:45:08;4.35;;;2.97;;
49858;SDS011;35756;52.346;13.622;2023-08-30T05:47:33;4.85;;;3.47;;
49858;SDS011;35756;52.346;13.622;2023-08-30T05:49:59;5.53;;;3.85;;
49858;SDS011;35756;52.346;13.622;2023-08-30T05:52:24;4.20;;;3.20;;
49858;SDS011;35756;52.346;13.622;2023-08-30T05:54:50;5.13;;;3.30;;
49858;SDS011;35756;52.346;13.622;2023-08-30T05:57:15;5.32;;;3.40;;
49858;SDS011;35756;52.346;13.622;2023-08-30T05:59:40;5.30;;;3.55;;
49858;SDS011;35756;52.346;13.622;2023-08-30T06:02:06;4.32;;;3.05;;
49858;SDS011;35756;52.346;13.622;2023-08-30T06:04:31;7.20;;;4.40;;
49858;SDS011;35756;52.346;13.622;2023-08-30T06:06:56;4.70;;;3.35;;
49858;SDS011;35756;52.346;13.622;2023-08-30T06:09:22;3.80;;;2.90;;
49858;SDS011;35756;52.346;13.622;2023-08-30T06:11:47;8.27;;;3.22;;
49858;SDS011;35756;52.346;13.622;2023-08-30T06:14:12;4.13;;;2.70;;
49858;SDS011;35756;52.346;13.622;2023-08-30T06:16:38;4.60;;;3.25;;
49858;SDS011;35756;52.346;13.622;2023-08-30T06:19:03;4.18;;;3.20;;
49858;SDS011;35756;52.346;13.622;2023-08-30T06:21:28;5.13;;;3.40;;
49858;SDS011;35756;52.346;13.622;2023-08-30T06:23:54;5.32;;;3.70;;
49858;SDS011;35756;52.346;13.622;2023-08-30T06:26:19;4.88;;;3.53;;
49858;SDS011;35756;52.346;13.622;2023-08-30T06:28:44;4.95;;;3.30;;
49858;SDS011;35756;52.346;13.622;2023-08-30T06:31:10;6.35;;;3.95;;
49858;SDS011;35756;52.346;13.622;2023-08-30T06:33:35;4.50;;;3.13;;
49858;SDS011;35756;52.346;13.622;2023-08-30T06:36:01;5.60;;;3.75;;
49858;SDS011;35756;52.346;13.622;2023-08-30T06:38:26;5.20;;;3.35;;
49858;SDS011;35756;52.346;13.622;2023-08-30T06:40:52;5.97;;;3.25;;
49858;SDS011;35756;52.346;13.622;2023-08-30T06:43:18;5.53;;;3.70;;
49858;SDS011;35756;52.346;13.622;2023-08-30T06:45:43;7.47;;;3.60;;
49858;SDS011;35756;52.346;13.622;2023-08-30T06:48:09;4.82;;;3.35;;
49858;SDS011;35756;52.346;13.622;2023-08-30T06:50:34;5.45;;;3.72;;
49858;SDS011;35756;52.346;13.622;2023-08-30T06:53:00;4.82;;;3.53;;
49858;SDS011;35756;52.346;13.622;2023-08-30T06:55:26;4.90;;;3.33;;
49858;SDS011;35756;52.346;13.622;2023-08-30T06:57:51;4.38;;;3.40;;
49858;SDS011;35756;52.346;13.622;2023-08-30T07:00:17;4.63;;;3.30;;
49858;SDS011;35756;52.346;13.622;2023-08-30T07:02:42;5.75;;;4.03;;
49858;SDS011;35756;52.346;13.622;2023-08-30T07:05:10;4.97;;;3.30;;
49858;SDS011;35756;52.346;13.622;2023-08-30T07:07:36;4.90;;;3.42;;
49858;SDS011;35756;52.346;13.622;2023-08-30T07:10:01;5.38;;;3.42;;
49858;SDS011;35756;52.346;13.622;2023-08-30T07:12:27;6.88;;;3.15;;
49858;SDS011;35756;52.346;13.622;2023-08-30T07:14:52;4.45;;;3.35;;
49858;SDS011;35756;52.346;13.622;2023-08-30T07:17:18;5.65;;;2.88;;
49858;SDS011;35756;52.346;13.622;2023-08-30T07:19:43;4.13;;;2.70;;
49858;SDS011;35756;52.346;13.622;2023-08-30T07:22:09;5.07;;;2.83;;
49858;SDS011;35756;52.346;13.622;2023-08-30T07:24:34;3.35;;;2.30;;
49858;SDS011;35756;52.346;13.622;2023-08-30T07:26:59;3.42;;;2.67;;
49858;SDS011;35756;52.346;13.622;2023-08-30T07:29:25;3.33;;;2.40;;
49858;SDS011;35756;52.346;13.622;2023-08-30T07:31:50;4.40;;;2.40;;
49858;SDS011;35756;52.346;13.622;2023-08-30T07:34:18;3.92;;;2.55;;
49858;SDS011;35756;52.346;13.622;2023-08-30T07:36:43;4.07;;;2.60;;
49858;SDS011;35756;52.346;13.622;2023-08-30T07:39:08;4.90;;;2.35;;
49858;SDS011;35756;52.346;13.622;2023-08-30T07:41:34;4.00;;;2.30;;
49858;SDS011;35756;52.346;13.622;2023-08-30T07:44:00;3.95;;;2.40;;
49858;SDS011;35756;52.346;13.622;2023-08-30T07:46:25;4.85;;;2.30;;
49858;SDS011;35756;52.346;13.622;2023-08-30T07:48:51;3.10;;;2.13;;
49858;SDS011;35756;52.346;13.622;2023-08-30T07:51:16;3.25;;;2.20;;
49858;SDS011;35756;52.346;13.622;2023-08-30T07:53:41;3.00;;;2.33;;
49858;SDS011;35756;52.346;13.622;2023-08-30T07:56:07;4.15;;;2.58;;
49858;SDS011;35756;52.346;13.622;2023-08-30T07:58:33;4.35;;;2.30;;
49858;SDS011;35756;52.346;13.622;2023-08-30T08:00:58;7.10;;;2.58;;
49858;SDS011;35756;52.346;13.622;2023-08-30T08:03:24;4.05;;;2.20;;
49858;SDS011;35756;52.346;13.622;2023-08-30T08:05:49;2.95;;;2.10;;
49858;SDS011;35756;52.346;13.622;2023-08-30T08:08:15;4.57;;;2.40;;
49858;SDS011;35756;52.346;13.622;2023-08-30T08:10:41;3.60;;;2.10;;
49858;SDS011;35756;52.346;13.622;2023-08-30T08:13:07;2.90;;;2.05;;
49858;SDS011;35756;52.346;13.622;2023-08-30T08:15:32;4.35;;;2.00;;
49858;SDS011;35756;52.346;13.622;2023-08-30T08:17:58;3.47;;;2.55;;
49858;SDS011;35756;52.346;13.622;2023-08-30T08:20:24;2.88;;;2.13;;
49858;SDS011;35756;52.346;13.622;2023-08-30T08:22:49;3.25;;;2.08;;
49858;SDS011;35756;52.346;13.622;2023-08-30T08:25:14;5.10;;;2.50;;
49858;SDS011;35756;52.346;13.622;2023-08-30T08:27:40;4.30;;;2.30;;
49858;SDS011;35756;52.346;13.622;2023-08-30T08:30:06;3.53;;;2.10;;
49858;SDS011;35756;52.346;13.622;2023-08-30T08:32:32;3.92;;;2.13;;
49858;SDS011;35756;52.346;13.622;2023-08-30T08:34:58;3.00;;;1.85;;
49858;SDS011;35756;52.346;13.622;2023-08-30T08:37:23;3.33;;;2.00;;
49858;SDS011;35756;52.346;13.622;2023-08-30T08:39:48;4.45;;;2.13;;
49858;SDS011;35756;52.346;13.622;2023-08-30T08:42:17;3.72;;;2.20;;
49858;SDS011;35756;52.346;13.622;2023-08-30T08:44:44;4.15;;;2.22;;
49858;SDS011;35756;52.346;13.622;2023-08-30T08:47:11;4.55;;;2.20;;
49858;SDS011;35756;52.346;13.622;2023-08-30T08:49:36;4.80;;;2.13;;
49858;SDS011;35756;52.346;13.622;2023-08-30T08:52:01;3.83;;;1.75;;
49858;SDS011;35756;52.346;13.622;2023-08-30T08:54:28;2.90;;;2.00;;
49858;SDS011;35756;52.346;13.622;2023-08-30T08:56:53;2.60;;;1.92;;
49858;SDS011;35756;52.346;13.622;2023-08-30T08:59:19;3.95;;;1.90;;
49858;SDS011;35756;52.346;13.622;2023-08-30T09:01:44;2.88;;;1.88;;
49858;SDS011;35756;52.346;13.622;2023-08-30T09:04:10;2.92;;;2.05;;
49858;SDS011;35756;52.346;13.622;2023-08-30T09:06:35;3.15;;;1.92;;
49858;SDS011;35756;52.346;13.622;2023-08-30T09:09:04;2.72;;;2.08;;
49858;SDS011;35756;52.346;13.622;2023-08-30T09:11:30;2.90;;;2.08;;
49858;SDS011;35756;52.346;13.622;2023-08-30T09:13:56;3.90;;;2.30;;
49858;SDS011;35756;52.346;13.622;2023-08-30T09:16:21;2.85;;;1.95;;
49858;SDS011;35756;52.346;13.622;2023-08-30T09:18:56;3.55;;;2.30;;
49858;SDS011;35756;52.346;13.622;2023-08-30T09:21:22;2.90;;;2.05;;
49858;SDS011;35756;52.346;13.622;2023-08-30T09:23:56;3.25;;;1.80;;
49858;SDS011;35756;52.346;13.622;2023-08-30T09:26:21;5.32;;;2.00;;
49858;SDS011;35756;52.346;13.622;2023-08-30T09:28:47;4.63;;;1.80;;
49858;SDS011;35756;52.346;13.622;2023-08-30T09:31:18;3.03;;;1.73;;
49858;SDS011;35756;52.346;13.622;2023-08-30T09:33:45;3.25;;;1.95;;
49858;SDS011;35756;52.346;13.622;2023-08-30T09:36:12;2.65;;;1.83;;
49858;SDS011;35756;52.346;13.622;2023-08-30T09:38:38;2.42;;;1.80;;
49858;SDS011;35756;52.346;13.622;2023-08-30T09:41:03;2.85;;;1.90;;
49858;SDS011;35756;52.346;13.622;2023-08-30T09:43:29;2.45;;;1.67;;
49858;SDS011;35756;52.346;13.622;2023-08-30T09:45:54;1.83;;;1.50;;
49858;SDS011;35756;52.346;13.622;2023-08-30T09:48:20;2.50;;;1.70;;
49858;SDS011;35756;52.346;13.622;2023-08-30T09:50:52;3.05;;;1.70;;
49858;SDS011;35756;52.346;13.622;2023-08-30T09:53:20;3.40;;;1.48;;
49858;SDS011;35756;52.346;13.622;2023-08-30T09:55:46;4.00;;;1.52;;
49858;SDS011;35756;52.346;13.622;2023-08-30T09:58:13;2.28;;;1.50;;
49858;SDS011;35756;52.346;13.622;2023-08-30T10:00:39;1.77;;;1.25;;
49858;SDS011;35756;52.346;13.622;2023-08-30T10:03:04;2.45;;;1.48;;
49858;SDS011;35756;52.346;13.622;2023-08-30T10:05:29;2.22;;;1.50;;
49858;SDS011;35756;52.346;13.622;2023-08-30T10:07:56;1.48;;;1.30;;
49858;SDS011;35756;52.346;13.622;2023-08-30T10:10:22;2.05;;;1.48;;
49858;SDS011;35756;52.346;13.622;2023-08-30T10:12:47;3.60;;;1.33;;
49858;SDS011;35756;52.346;13.622;2023-08-30T10:15:14;2.55;;;1.30;;
49858;SDS011;35756;52.346;13.622;2023-08-30T10:17:41;2.20;;;1.40;;
49858;SDS011;35756;52.346;13.622;2023-08-30T10:20:10;2.75;;;1.60;;
49858;SDS011;35756;52.346;13.622;2023-08-30T10:22:37;2.42;;;1.50;;
49858;SDS011;35756;52.346;13.622;2023-08-30T10:25:04;2.15;;;1.52;;
49858;SDS011;35756;52.346;13.622;2023-08-30T10:27:32;2.05;;;1.40;;
49858;SDS011;35756;52.346;13.622;2023-08-30T10:29:59;1.98;;;1.42;;
49858;SDS011;35756;52.346;13.622;2023-08-30T10:32:26;4.47;;;1.40;;
49858;SDS011;35756;52.346;13.622;2023-08-30T10:34:51;1.40;;;1.20;;
49858;SDS011;35756;52.346;13.622;2023-08-30T10:37:22;1.85;;;1.50;;
49858;SDS011;35756;52.346;13.622;2023-08-30T10:39:51;2.97;;;1.60;;
49858;SDS011;35756;52.346;13.622;2023-08-30T10:42:17;1.40;;;1.20;;
49858;SDS011;35756;52.346;13.622;2023-08-30T10:44:47;3.53;;;1.48;;
49858;SDS011;35756;52.346;13.622;2023-08-30T10:47:22;1.35;;;1.20;;
49858;SDS011;35756;52.346;13.622;2023-08-30T10:49:48;2.17;;;1.27;;
49858;SDS011;35756;52.346;13.622;2023-08-30T10:52:14;1.20;;;1.10;;
49858;SDS011;35756;52.346;13.622;2023-08-30T10:54:39;1.67;;;1.20;;
49858;SDS011;35756;52.346;13.622;2023-08-30T10:57:05;1.95;;;1.50;;
49858;SDS011;35756;52.346;13.622;2023-08-30T10:59:30;1.70;;;1.30;;
49858;SDS011;35756;52.346;13.622;2023-08-30T11:01:55;2.15;;;1.42;;
49858;SDS011;35756;52.346;13.622;2023-08-30T11:04:21;2.55;;;1.60;;
49858;SDS011;35756;52.346;13.622;2023-08-30T11:06:48;2.65;;;1.65;;
49858;SDS011;35756;52.346;13.622;2023-08-30T11:09:14;1.80;;;1.20;;
49858;SDS011;35756;52.346;13.622;2023-08-30T11:11:44;2.22;;;1.55;;
49858;SDS011;35756;52.346;13.622;2023-08-30T11:14:10;1.77;;;1.17;;
49858;SDS011;35756;52.346;13.622;2023-08-30T11:16:36;3.67;;;1.40;;
49858;SDS011;35756;52.346;13.622;2023-08-30T11:19:02;1.08;;;0.98;;
49858;SDS011;35756;52.346;13.622;2023-08-30T11:21:28;1.30;;;1.17;;
49858;SDS011;35756;52.346;13.622;2023-08-30T11:23:54;1.42;;;1.23;;
49858;SDS011;35756;52.346;13.622;2023-08-30T11:26:19;1.60;;;1.25;;
49858;SDS011;35756;52.346;13.622;2023-08-30T11:28:45;1.30;;;1.10;;
49858;SDS011;35756;52.346;13.622;2023-08-30T11:31:22;1.90;;;1.30;;
49858;SDS011;35756;52.346;13.622;2023-08-30T11:33:54;2.50;;;1.40;;
49858;SDS011;35756;52.346;13.622;2023-08-30T11:36:21;3.03;;;1.27;;
49858;SDS011;35756;52.346;13.622;2023-08-30T11:38:47;3.60;;;1.80;;
49858;SDS011;35756;52.346;13.622;2023-08-30T11:41:14;1.48;;;1.20;;
49858;SDS011;35756;52.346;13.622;2023-08-30T11:43:39;1.80;;;1.30;;
49858;SDS011;35756;52.346;13.622;2023-08-30T11:46:05;1.77;;;1.45;;
49858;SDS011;35756;52.346;13.622;2023-08-30T11:48:30;2.00;;;1.23;;
49858;SDS011;35756;52.346;13.622;2023-08-30T11:50:56;3.20;;;1.52;;
49858;SDS011;35756;52.346;13.622;2023-08-30T11:53:21;1.15;;;1.00;;
49858;SDS011;35756;52.346;13.622;2023-08-30T11:55:47;2.65;;;1.50;;
49858;SDS011;35756;52.346;13.622;2023-08-30T11:58:12;1.48;;;1.30;;
49858;SDS011;35756;52.346;13.622;2023-08-30T12:00:37;1.98;;;1.50;;
49858;SDS011;35756;52.346;13.622;2023-08-30T12:03:04;2.65;;;1.40;;
49858;SDS011;35756;52.346;13.622;2023-08-30T12:05:30;1.17;;;1.08;;
49858;SDS011;35756;52.346;13.622;2023-08-30T12:07:58;1.77;;;1.27;;
49858;SDS011;35756;52.346;13.622;2023-08-30T12:10:24;1.60;;;1.35;;
49858;SDS011;35756;52.346;13.622;2023-08-30T12:12:49;2.03;;;1.33;;
49858;SDS011;35756;52.346;13.622;2023-08-30T12:15:15;1.10;;;1.00;;
49858;SDS011;35756;52.346;13.622;2023-08-30T12:17:41;2.45;;;1.33;;
49858;SDS011;35756;52.346;13.622;2023-08-30T12:20:13;1.92;;;1.40;;
49858;SDS011;35756;52.346;13.622;2023-08-30T12:22:39;1.45;;;1.15;;
49858;SDS011;35756;52.346;13.622;2023-08-30T12:25:18;1.55;;;1.20;;
49858;SDS011;35756;52.346;13.622;2023-08-30T12:27:44;1.40;;;1.30;;
49858;SDS011;35756;52.346;13.622;2023-08-30T12:30:09;2.83;;;1.20;;
49858;SDS011;35756;52.346;13.622;2023-08-30T12:32:35;1.95;;;1.25;;
49858;SDS011;35756;52.346;13.622;2023-08-30T12:35:00;2.45;;;1.85;;
49858;SDS011;35756;52.346;13.622;2023-08-30T12:37:25;2.47;;;1.52;;
49858;SDS011;35756;52.346;13.622;2023-08-30T12:39:51;1.98;;;1.55;;
49858;SDS011;35756;52.346;13.622;2023-08-30T12:42:16;1.50;;;1.40;;
49858;SDS011;35756;52.346;13.622;2023-08-30T12:44:41;2.38;;;1.50;;
49858;SDS011;35756;52.346;13.622;2023-08-30T12:47:07;2.08;;;1.58;;
49858;SDS011;35756;52.346;13.622;2023-08-30T12:49:32;1.70;;;1.60;;
49858;SDS011;35756;52.346;13.622;2023-08-30T12:51:57;2.28;;;1.40;;
49858;SDS011;35756;52.346;13.622;2023-08-30T12:54:22;1.70;;;1.50;;
49858;SDS011;35756;52.346;13.622;2023-08-30T12:56:48;2.42;;;1.85;;
49858;SDS011;35756;52.346;13.622;2023-08-30T12:59:13;2.42;;;1.42;;
49858;SDS011;35756;52.346;13.622;2023-08-30T13:01:38;2.88;;;1.70;;
49858;SDS011;35756;52.346;13.622;2023-08-30T13:04:04;3.05;;;1.83;;
49858;SDS011;35756;52.346;13.622;2023-08-30T13:06:29;2.65;;;1.90;;
49858;SDS011;35756;52.346;13.622;2023-08-30T13:08:54;2.78;;;1.90;;
49858;SDS011;35756;52.346;13.622;2023-08-30T13:11:19;1.98;;;1.77;;
49858;SDS011;35756;52.346;13.622;2023-08-30T13:13:45;1.67;;;1.50;;
49858;SDS011;35756;52.346;13.622;2023-08-30T13:16:10;2.08;;;1.88;;
49858;SDS011;35756;52.346;13.622;2023-08-30T13:18:35;2.65;;;1.80;;
49858;SDS011;35756;52.346;13.622;2023-08-30T13:21:01;2.60;;;1.90;;
49858;SDS011;35756;52.346;13.622;2023-08-30T13:23:26;2.53;;;1.80;;
49858;SDS011;35756;52.346;13.622;2023-08-30T13:25:51;2.25;;;1.83;;
49858;SDS011;35756;52.346;13.622;2023-08-30T13:28:16;2.55;;;1.80;;
49858;SDS011;35756;52.346;13.622;2023-08-30T13:30:45;3.20;;;1.88;;
49858;SDS011;35756;52.346;13.622;2023-08-30T13:33:10;3.00;;;1.90;;
49858;SDS011;35756;52.346;13.622;2023-08-30T13:35:38;2.05;;;1.70;;
49858;SDS011;35756;52.346;13.622;2023-08-30T13:38:04;2.47;;;1.80;;
49858;SDS011;35756;52.346;13.622;2023-08-30T13:40:29;5.55;;;2.03;;
49858;SDS011;35756;52.346;13.622;2023-08-30T13:42:54;2.05;;;1.50;;
49858;SDS011;35756;52.346;13.622;2023-08-30T13:45:20;2.42;;;1.70;;
49858;SDS011;35756;52.346;13.622;2023-08-30T13:47:45;2.72;;;1.80;;
49858;SDS011;35756;52.346;13.622;2023-08-30T13:50:11;3.92;;;1.70;;
49858;SDS011;35756;52.346;13.622;2023-08-30T13:52:37;1.83;;;1.67;;
49858;SDS011;35756;52.346;13.622;2023-08-30T13:55:02;1.90;;;1.70;;
49858;SDS011;35756;52.346;13.622;2023-08-30T13:57:27;2.28;;;1.88;;
49858;SDS011;35756;52.346;13.622;2023-08-30T13:59:53;3.28;;;1.50;;
49858;SDS011;35756;52.346;13.622;2023-08-30T14:02:18;2.38;;;1.73;;
49858;SDS011;35756;52.346;13.622;2023-08-30T14:04:44;3.25;;;1.80;;
49858;SDS011;35756;52.346;13.622;2023-08-30T14:07:09;3.15;;;1.67;;
49858;SDS011;35756;52.346;13.622;2023-08-30T14:09:36;2.38;;;1.70;;
49858;SDS011;35756;52.346;13.622;2023-08-30T14:12:02;2.60;;;1.67;;
49858;SDS011;35756;52.346;13.622;2023-08-30T14:14:28;1.88;;;1.60;;
49858;SDS011;35756;52.346;13.622;2023-08-30T14:16:54;2.63;;;1.88;;
49858;SDS011;35756;52.346;13.622;2023-08-30T14:19:19;3.60;;;1.85;;
49858;SDS011;35756;52.346;13.622;2023-08-30T14:21:44;2.42;;;1.60;;
49858;SDS011;35756;52.346;13.622;2023-08-30T14:24:10;2.75;;;1.60;;
49858;SDS011;35756;52.346;13.622;2023-08-30T14:26:35;2.10;;;1.70;;
49858;SDS011;35756;52.346;13.622;2023-08-30T14:29:01;2.58;;;1.58;;